Alvaton, Kentucky
Current Conditions -  °F | °C
As of 11:53 AM on Friday 19 Dec 2014 (Local Time) from KBWG Reporting Station
Clear Clear  
Wind Chill: 37°   Ceiling: Unl
Heat Index: 37°   Visibility: 7mi
Dew Point: 27°   Wind: 3mph
Humidity: 67%   Direction: 80°E
Pressure: 30.27"   Gusts: NA
Location:  36.87°N, 86.35°W
Report Text: KBWG 191753Z AUTO 08003KT 7SM CLR 03/M03 A3027 RMK AO2 SLP253 T00281028 10028 21017 58010
Loading
Personal Weather Stations






























Interactive Weather Map New forecast layout! Learn more

10-Day Weather Forecast

Advertisements
Track Severe Weather on mobile